Search for airport 
image banner adimage banner ad
image banner ad

FZQA - Lubumbashi

Located in , Congo, the Democratic Republic of the

ICAO - FZQA, IATA - FBM

Data provided by Airmate  

General information

Coordinates: S11°35'4" E27°32'29"
Elevation is 4302 feet MSL.
 
Rated:
View ratings: [VIEW]


View others Airports in Katanga

Operational data

Open for public use
Current time UTC:
Current local time:
Weather
TAF: TAF FZQA 060500Z 0606/0712 06004KT CAVOK BECMG 0612/0615 12006KT 9999 FEW018 FM061500 VRB03KT CAVOK BECMG 061600 00000KT
View NOTAMs / SUP AIP / TFR affecting this airport [VIEW]
Communications frequencies: [VIEW]

Runways:

RWY identifierQFULength (ft)Width (ft)SurfaceLDA (ft)
0774°10623164ASP
25254°10499164

Airport contact information

Address: Congo, the Democratic Republic of the

Satellite view of FZQA